sensor_id;sensor_type;location;lat;lon;timestamp;pressure;altitude;pressure_sealevel;temperature;humidity
50430;BME280;36359;41.556;-8.418;2023-03-18T00:00:08;100060.13;;;12.18;100.00
50430;BME280;36359;41.556;-8.418;2023-03-18T00:02:36;100064.84;;;12.08;100.00
50430;BME280;36359;41.556;-8.418;2023-03-18T00:05:04;100062.31;;;12.14;100.00
50430;BME280;36359;41.556;-8.418;2023-03-18T00:07:30;100062.50;;;12.13;100.00
50430;BME280;36359;41.556;-8.418;2023-03-18T00:09:56;100071.34;;;12.15;100.00
50430;BME280;36359;41.556;-8.418;2023-03-18T00:12:22;100065.72;;;12.16;100.00
50430;BME280;36359;41.556;-8.418;2023-03-18T00:14:49;100061.16;;;12.25;100.00
50430;BME280;36359;41.556;-8.418;2023-03-18T00:17:15;100066.63;;;12.49;100.00
50430;BME280;36359;41.556;-8.418;2023-03-18T00:19:41;100060.50;;;12.56;100.00
50430;BME280;36359;41.556;-8.418;2023-03-18T00:22:08;100063.56;;;12.53;100.00
50430;BME280;36359;41.556;-8.418;2023-03-18T00:24:35;100056.44;;;12.52;100.00
50430;BME280;36359;41.556;-8.418;2023-03-18T00:27:04;100059.50;;;12.57;100.00
50430;BME280;36359;41.556;-8.418;2023-03-18T00:29:30;100057.44;;;12.59;100.00
50430;BME280;36359;41.556;-8.418;2023-03-18T00:31:59;100045.56;;;12.68;100.00
50430;BME280;36359;41.556;-8.418;2023-03-18T00:34:25;100046.56;;;12.67;100.00
50430;BME280;36359;41.556;-8.418;2023-03-18T00:36:52;100049.28;;;12.67;100.00
50430;BME280;36359;41.556;-8.418;2023-03-18T00:39:24;100050.47;;;12.97;100.00
50430;BME280;36359;41.556;-8.418;2023-03-18T00:41:54;100042.13;;;12.82;100.00
50430;BME280;36359;41.556;-8.418;2023-03-18T00:44:20;100048.59;;;12.73;100.00
50430;BME280;36359;41.556;-8.418;2023-03-18T00:46:46;100045.56;;;12.68;100.00
50430;BME280;36359;41.556;-8.418;2023-03-18T00:49:12;100042.50;;;12.63;100.00
50430;BME280;36359;41.556;-8.418;2023-03-18T00:51:38;100043.69;;;12.60;100.00
50430;BME280;36359;41.556;-8.418;2023-03-18T00:54:09;100055.44;;;12.77;100.00
50430;BME280;36359;41.556;-8.418;2023-03-18T00:56:37;100065.63;;;12.67;100.00
50430;BME280;36359;41.556;-8.418;2023-03-18T00:59:04;100057.47;;;12.83;100.00
50430;BME280;36359;41.556;-8.418;2023-03-18T01:01:30;100054.41;;;12.62;100.00
50430;BME280;36359;41.556;-8.418;2023-03-18T01:03:59;100058.47;;;12.49;100.00
50430;BME280;36359;41.556;-8.418;2023-03-18T01:06:29;100053.03;;;12.49;100.00
50430;BME280;36359;41.556;-8.418;2023-03-18T01:08:56;100053.34;;;12.30;100.00
50430;BME280;36359;41.556;-8.418;2023-03-18T01:11:24;100053.69;;;12.27;100.00
50430;BME280;36359;41.556;-8.418;2023-03-18T01:13:50;100041.47;;;12.47;100.00
50430;BME280;36359;41.556;-8.418;2023-03-18T01:16:16;100039.59;;;12.64;100.00
50430;BME280;36359;41.556;-8.418;2023-03-18T01:18:42;100044.50;;;12.53;100.00
50430;BME280;36359;41.556;-8.418;2023-03-18T01:21:09;100048.59;;;12.73;100.00
50430;BME280;36359;41.556;-8.418;2023-03-18T01:23:42;100056.63;;;12.75;100.00
50430;BME280;36359;41.556;-8.418;2023-03-18T01:26:08;100061.69;;;13.10;100.00
50430;BME280;36359;41.556;-8.418;2023-03-18T01:28:38;100062.03;;;13.15;100.00
50430;BME280;36359;41.556;-8.418;2023-03-18T01:31:04;100064.25;;;13.04;100.00
50430;BME280;36359;41.556;-8.418;2023-03-18T01:33:30;100067.81;;;12.88;100.00
50430;BME280;36359;41.556;-8.418;2023-03-18T01:35:58;100070.03;;;12.92;100.00
50430;BME280;36359;41.556;-8.418;2023-03-18T01:38:28;100074.44;;;13.10;100.00
50430;BME280;36359;41.556;-8.418;2023-03-18T01:40:58;100077.53;;;12.99;100.00
50430;BME280;36359;41.556;-8.418;2023-03-18T01:43:31;100068.81;;;13.11;100.00
50430;BME280;36359;41.556;-8.418;2023-03-18T01:46:00;100077.19;;;13.10;100.00
50430;BME280;36359;41.556;-8.418;2023-03-18T01:48:34;100092.31;;;12.88;100.00
50430;BME280;36359;41.556;-8.418;2023-03-18T01:51:07;100091.81;;;12.76;100.00
50430;BME280;36359;41.556;-8.418;2023-03-18T01:53:38;100079.72;;;13.11;100.00
50430;BME280;36359;41.556;-8.418;2023-03-18T01:56:07;100082.63;;;13.18;100.00
50430;BME280;36359;41.556;-8.418;2023-03-18T01:58:54;100088.41;;;13.15;100.00
50430;BME280;36359;41.556;-8.418;2023-03-18T02:01:39;100081.25;;;13.06;100.00
50430;BME280;36359;41.556;-8.418;2023-03-18T02:04:08;100091.28;;;13.05;100.00
50430;BME280;36359;41.556;-8.418;2023-03-18T02:06:37;100084.66;;;13.00;100.00
50430;BME280;36359;41.556;-8.418;2023-03-18T02:09:04;100079.56;;;13.05;100.00
50430;BME280;36359;41.556;-8.418;2023-03-18T02:11:32;100075.84;;;12.98;100.00
50430;BME280;36359;41.556;-8.418;2023-03-18T02:17:05;100067.66;;;12.48;100.00
50430;BME280;36359;41.556;-8.418;2023-03-18T02:22:32;100064.59;;;12.43;100.00
50430;BME280;36359;41.556;-8.418;2023-03-18T02:25:30;100070.72;;;12.45;100.00
50430;BME280;36359;41.556;-8.418;2023-03-18T02:28:00;100062.88;;;12.42;100.00
50430;BME280;36359;41.556;-8.418;2023-03-18T02:30:42;100059.47;;;12.40;100.00
50430;BME280;36359;41.556;-8.418;2023-03-18T02:33:13;100061.72;;;12.45;100.00
50430;BME280;36359;41.556;-8.418;2023-03-18T02:35:41;100061.84;;;12.35;100.00
50430;BME280;36359;41.556;-8.418;2023-03-18T02:38:09;100050.44;;;12.32;100.00
50430;BME280;36359;41.556;-8.418;2023-03-18T02:40:37;100045.38;;;12.37;100.00
50430;BME280;36359;41.556;-8.418;2023-03-18T02:43:20;100044.16;;;12.31;100.00
50430;BME280;36359;41.556;-8.418;2023-03-18T02:48:40;100051.16;;;12.66;100.00
50430;BME280;36359;41.556;-8.418;2023-03-18T02:51:09;100042.84;;;12.60;100.00
50430;BME280;36359;41.556;-8.418;2023-03-18T02:53:36;100045.22;;;12.55;100.00
50430;BME280;36359;41.556;-8.418;2023-03-18T02:56:03;100042.16;;;12.66;100.00
50430;BME280;36359;41.556;-8.418;2023-03-18T02:58:29;100042.84;;;12.60;100.00
50430;BME280;36359;41.556;-8.418;2023-03-18T03:00:58;100043.16;;;12.89;100.00
50430;BME280;36359;41.556;-8.418;2023-03-18T03:03:25;100044.00;;;12.90;100.00
50430;BME280;36359;41.556;-8.418;2023-03-18T03:05:51;100038.06;;;12.86;100.00
50430;BME280;36359;41.556;-8.418;2023-03-18T03:08:19;100044.16;;;12.96;100.00
50430;BME280;36359;41.556;-8.418;2023-03-18T03:10:46;100055.75;;;12.82;100.00
50430;BME280;36359;41.556;-8.418;2023-03-18T03:13:14;100047.91;;;12.95;100.00
50430;BME280;36359;41.556;-8.418;2023-03-18T03:15:40;100042.13;;;12.82;100.00
50430;BME280;36359;41.556;-8.418;2023-03-18T03:18:07;100044.53;;;12.77;100.00
50430;BME280;36359;41.556;-8.418;2023-03-18T03:20:35;100040.47;;;12.65;100.00
50430;BME280;36359;41.556;-8.418;2023-03-18T03:23:08;100043.66;;;12.52;100.00
50430;BME280;36359;41.556;-8.418;2023-03-18T03:25:35;100041.28;;;12.49;100.00
50430;BME280;36359;41.556;-8.418;2023-03-18T03:28:01;100043.81;;;12.26;100.00
50430;BME280;36359;41.556;-8.418;2023-03-18T03:30:28;100043.63;;;12.11;100.00
50430;BME280;36359;41.556;-8.418;2023-03-18T03:32:55;100039.03;;;12.03;100.00
50430;BME280;36359;41.556;-8.418;2023-03-18T03:35:22;100042.72;;;11.86;100.00
50430;BME280;36359;41.556;-8.418;2023-03-18T03:37:49;100036.66;;;12.17;100.00
50430;BME280;36359;41.556;-8.418;2023-03-18T03:40:17;100035.81;;;12.16;100.00
50430;BME280;36359;41.556;-8.418;2023-03-18T03:42:44;100037.19;;;12.12;100.00
50430;BME280;36359;41.556;-8.418;2023-03-18T03:45:11;100026.28;;;12.20;100.00
50430;BME280;36359;41.556;-8.418;2023-03-18T03:47:40;100035.28;;;12.04;100.00
50430;BME280;36359;41.556;-8.418;2023-03-18T03:50:06;100041.44;;;12.23;100.00
50430;BME280;36359;41.556;-8.418;2023-03-18T03:52:32;100049.25;;;12.26;100.00
50430;BME280;36359;41.556;-8.418;2023-03-18T03:54:58;100044.38;;;12.54;100.00
50430;BME280;36359;41.556;-8.418;2023-03-18T03:57:26;100035.34;;;12.45;100.00
50430;BME280;36359;41.556;-8.418;2023-03-18T03:59:53;100035.19;;;12.39;100.00
50430;BME280;36359;41.556;-8.418;2023-03-18T04:02:39;100041.28;;;12.49;100.00
50430;BME280;36359;41.556;-8.418;2023-03-18T04:05:07;100038.38;;;12.59;100.00
50430;BME280;36359;41.556;-8.418;2023-03-18T04:07:32;100047.41;;;12.76;100.00
50430;BME280;36359;41.556;-8.418;2023-03-18T04:09:58;100042.31;;;12.81;100.00
50430;BME280;36359;41.556;-8.418;2023-03-18T04:12:24;100040.28;;;12.66;100.00
50430;BME280;36359;41.556;-8.418;2023-03-18T04:14:57;100048.63;;;12.57;100.00
50430;BME280;36359;41.556;-8.418;2023-03-18T04:17:23;100051.34;;;12.65;100.00
50430;BME280;36359;41.556;-8.418;2023-03-18T04:19:49;100052.69;;;12.85;100.00
50430;BME280;36359;41.556;-8.418;2023-03-18T04:22:15;100058.47;;;12.82;100.00
50430;BME280;36359;41.556;-8.418;2023-03-18T04:24:40;100052.84;;;12.76;100.00
50430;BME280;36359;41.556;-8.418;2023-03-18T04:27:07;100055.06;;;12.72;100.00
50430;BME280;36359;41.556;-8.418;2023-03-18T04:29:32;100048.78;;;12.80;100.00
50430;BME280;36359;41.556;-8.418;2023-03-18T04:31:59;100049.63;;;12.72;100.00
50430;BME280;36359;41.556;-8.418;2023-03-18T04:34:25;100051.84;;;12.68;100.00
50430;BME280;36359;41.556;-8.418;2023-03-18T04:36:51;100051.50;;;12.63;100.00
50430;BME280;36359;41.556;-8.418;2023-03-18T04:39:17;100048.63;;;12.65;100.00
50430;BME280;36359;41.556;-8.418;2023-03-18T04:41:43;100050.13;;;12.67;100.00
50430;BME280;36359;41.556;-8.418;2023-03-18T04:44:09;100053.03;;;12.82;100.00
50430;BME280;36359;41.556;-8.418;2023-03-18T04:46:50;100057.97;;;12.79;100.00
50430;BME280;36359;41.556;-8.418;2023-03-18T04:49:16;100059.00;;;12.78;100.00
50430;BME280;36359;41.556;-8.418;2023-03-18T04:51:42;100064.94;;;12.73;100.00
50430;BME280;36359;41.556;-8.418;2023-03-18T04:54:18;100060.00;;;12.93;100.00
50430;BME280;36359;41.556;-8.418;2023-03-18T04:56:44;100061.53;;;13.04;100.00
50430;BME280;36359;41.556;-8.418;2023-03-18T04:59:11;100065.94;;;13.21;100.00
50430;BME280;36359;41.556;-8.418;2023-03-18T05:01:37;100062.19;;;13.14;100.00
50430;BME280;36359;41.556;-8.418;2023-03-18T05:04:03;100060.00;;;13.09;100.00
50430;BME280;36359;41.556;-8.418;2023-03-18T05:06:38;100062.00;;;13.32;100.00
50430;BME280;36359;41.556;-8.418;2023-03-18T05:09:09;100063.69;;;13.25;100.00
50430;BME280;36359;41.556;-8.418;2023-03-18T05:11:35;100068.25;;;13.49;100.00
50430;BME280;36359;41.556;-8.418;2023-03-18T05:14:10;100073.94;;;13.78;100.00
50430;BME280;36359;41.556;-8.418;2023-03-18T05:16:43;100081.50;;;13.68;100.00
50430;BME280;36359;41.556;-8.418;2023-03-18T05:19:10;100073.78;;;13.80;100.00
50430;BME280;36359;41.556;-8.418;2023-03-18T05:21:41;100084.28;;;13.44;100.00
50430;BME280;36359;41.556;-8.418;2023-03-18T05:24:08;100089.38;;;13.55;100.00
50430;BME280;36359;41.556;-8.418;2023-03-18T05:26:39;100097.59;;;13.22;100.00
50430;BME280;36359;41.556;-8.418;2023-03-18T05:29:06;100091.66;;;13.27;100.00
50430;BME280;36359;41.556;-8.418;2023-03-18T05:31:42;100082.13;;;12.90;100.00
50430;BME280;36359;41.556;-8.418;2023-03-18T05:34:08;100092.31;;;12.88;100.00
50430;BME280;36359;41.556;-8.418;2023-03-18T05:36:34;100097.63;;;12.98;100.00
50430;BME280;36359;41.556;-8.418;2023-03-18T05:39:04;100088.91;;;12.94;100.00
50430;BME280;36359;41.556;-8.418;2023-03-18T05:41:30;100095.75;;;12.90;100.00
50430;BME280;36359;41.556;-8.418;2023-03-18T05:43:57;100095.56;;;13.00;100.00
50430;BME280;36359;41.556;-8.418;2023-03-18T05:46:24;100087.91;;;13.03;100.00
50430;BME280;36359;41.556;-8.418;2023-03-18T05:49:07;100092.53;;;12.94;100.00
50430;BME280;36359;41.556;-8.418;2023-03-18T05:51:44;100095.06;;;12.88;100.00
50430;BME280;36359;41.556;-8.418;2023-03-18T05:54:15;100090.13;;;12.91;100.00
50430;BME280;36359;41.556;-8.418;2023-03-18T05:56:43;100092.00;;;12.83;100.00
50430;BME280;36359;41.556;-8.418;2023-03-18T05:59:12;100094.88;;;12.81;100.00
50430;BME280;36359;41.556;-8.418;2023-03-18T06:01:47;100090.47;;;12.72;100.00
50430;BME280;36359;41.556;-8.418;2023-03-18T06:04:15;100089.44;;;12.73;100.00
50430;BME280;36359;41.556;-8.418;2023-03-18T06:06:45;100096.44;;;12.92;100.00
50430;BME280;36359;41.556;-8.418;2023-03-18T06:09:12;100100.00;;;12.84;100.00
50430;BME280;36359;41.556;-8.418;2023-03-18T06:11:41;100101.53;;;12.79;100.00
50430;BME280;36359;41.556;-8.418;2023-03-18T06:14:09;100095.41;;;12.77;100.00
50430;BME280;36359;41.556;-8.418;2023-03-18T06:16:35;100099.97;;;12.76;100.00
50430;BME280;36359;41.556;-8.418;2023-03-18T06:19:02;100108.47;;;13.06;100.00
50430;BME280;36359;41.556;-8.418;2023-03-18T06:21:28;100107.47;;;13.07;100.00
50430;BME280;36359;41.556;-8.418;2023-03-18T06:23:56;100108.84;;;13.03;100.00
50430;BME280;36359;41.556;-8.418;2023-03-18T06:26:22;100105.06;;;13.20;100.00
50430;BME280;36359;41.556;-8.418;2023-03-18T06:28:48;100117.34;;;13.08;100.00
50430;BME280;36359;41.556;-8.418;2023-03-18T06:31:16;100121.44;;;12.87;100.00
50430;BME280;36359;41.556;-8.418;2023-03-18T06:33:42;100127.22;;;12.84;100.00
50430;BME280;36359;41.556;-8.418;2023-03-18T06:36:10;100126.53;;;12.90;100.00
50430;BME280;36359;41.556;-8.418;2023-03-18T06:38:41;100128.94;;;12.77;100.00
50430;BME280;36359;41.556;-8.418;2023-03-18T06:41:07;100128.94;;;12.85;100.00
50430;BME280;36359;41.556;-8.418;2023-03-18T06:43:39;100128.91;;;12.69;100.00
50430;BME280;36359;41.556;-8.418;2023-03-18T06:46:05;100131.97;;;12.58;100.00
50430;BME280;36359;41.556;-8.418;2023-03-18T06:48:31;100140.81;;;12.60;100.00
50430;BME280;36359;41.556;-8.418;2023-03-18T06:50:57;100143.69;;;12.58;100.00
50430;BME280;36359;41.556;-8.418;2023-03-18T06:53:29;100146.09;;;12.53;100.00
50430;BME280;36359;41.556;-8.418;2023-03-18T06:55:56;100159.16;;;12.49;100.00
50430;BME280;36359;41.556;-8.418;2023-03-18T06:58:25;100151.31;;;12.46;100.00
50430;BME280;36359;41.556;-8.418;2023-03-18T07:01:02;100159.81;;;12.43;100.00
50430;BME280;36359;41.556;-8.418;2023-03-18T07:03:34;100163.06;;;12.47;100.00
50430;BME280;36359;41.556;-8.418;2023-03-18T07:06:00;100165.44;;;12.42;100.00
50430;BME280;36359;41.556;-8.418;2023-03-18T07:08:28;100171.09;;;12.57;100.00
50430;BME280;36359;41.556;-8.418;2023-03-18T07:10:54;100172.97;;;12.56;100.00
50430;BME280;36359;41.556;-8.418;2023-03-18T07:13:20;100170.06;;;12.58;100.00
50430;BME280;36359;41.556;-8.418;2023-03-18T07:15:46;100180.78;;;12.67;100.00
50430;BME280;36359;41.556;-8.418;2023-03-18T07:18:12;100180.84;;;12.84;100.00
50430;BME280;36359;41.556;-8.418;2023-03-18T07:20:39;100185.78;;;12.88;100.00
50430;BME280;36359;41.556;-8.418;2023-03-18T07:23:05;100186.81;;;12.95;100.00
50430;BME280;36359;41.556;-8.418;2023-03-18T07:25:30;100184.75;;;12.89;100.00
50430;BME280;36359;41.556;-8.418;2023-03-18T07:27:57;100185.97;;;13.03;100.00
50430;BME280;36359;41.556;-8.418;2023-03-18T07:30:25;100199.03;;;12.83;100.00
50430;BME280;36359;41.556;-8.418;2023-03-18T07:32:52;100198.31;;;12.73;100.00
50430;BME280;36359;41.556;-8.418;2023-03-18T07:35:18;100203.97;;;12.88;100.00
50430;BME280;36359;41.556;-8.418;2023-03-18T07:37:44;100203.28;;;12.78;100.00
50430;BME280;36359;41.556;-8.418;2023-03-18T07:40:11;100213.00;;;12.88;100.00
50430;BME280;36359;41.556;-8.418;2023-03-18T07:42:37;100213.50;;;12.84;100.00
50430;BME280;36359;41.556;-8.418;2023-03-18T07:45:04;100215.69;;;12.72;100.00
50430;BME280;36359;41.556;-8.418;2023-03-18T07:47:30;100217.06;;;12.68;100.00
50430;BME280;36359;41.556;-8.418;2023-03-18T07:49:56;100218.06;;;12.67;100.00
50430;BME280;36359;41.556;-8.418;2023-03-18T07:52:22;100228.91;;;12.59;100.00
50430;BME280;36359;41.556;-8.418;2023-03-18T07:54:48;100226.34;;;12.49;100.00
50430;BME280;36359;41.556;-8.418;2023-03-18T07:57:13;100226.66;;;12.46;100.00
50430;BME280;36359;41.556;-8.418;2023-03-18T07:59:39;100234.69;;;12.47;100.00
50430;BME280;36359;41.556;-8.418;2023-03-18T08:02:05;100233.66;;;12.48;100.00
50430;BME280;36359;41.556;-8.418;2023-03-18T08:04:32;100232.16;;;12.54;100.00
50430;BME280;36359;41.556;-8.418;2023-03-18T08:06:58;100240.53;;;12.69;100.00
50430;BME280;36359;41.556;-8.418;2023-03-18T08:09:24;100241.22;;;12.71;100.00
50430;BME280;36359;41.556;-8.418;2023-03-18T08:11:52;100242.22;;;12.70;100.00
50430;BME280;36359;41.556;-8.418;2023-03-18T08:14:18;100241.22;;;12.71;100.00
50430;BME280;36359;41.556;-8.418;2023-03-18T08:16:44;100247.03;;;12.84;100.00
50430;BME280;36359;41.556;-8.418;2023-03-18T08:19:09;100245.34;;;12.91;100.00
50430;BME280;36359;41.556;-8.418;2023-03-18T08:21:36;100252.53;;;13.01;100.00
50430;BME280;36359;41.556;-8.418;2023-03-18T08:24:02;100256.59;;;13.05;100.00
50430;BME280;36359;41.556;-8.418;2023-03-18T08:26:28;100258.28;;;13.06;100.00
50430;BME280;36359;41.556;-8.418;2023-03-18T08:28:53;100252.88;;;13.14;100.00
50430;BME280;36359;41.556;-8.418;2023-03-18T08:31:19;100260.88;;;13.15;100.00
50430;BME280;36359;41.556;-8.418;2023-03-18T08:33:45;100266.19;;;13.25;100.00
50430;BME280;36359;41.556;-8.418;2023-03-18T08:36:11;100269.44;;;13.37;100.00
50430;BME280;36359;41.556;-8.418;2023-03-18T08:38:37;100273.03;;;13.46;100.00
50430;BME280;36359;41.556;-8.418;2023-03-18T08:41:03;100275.25;;;13.50;100.00
50430;BME280;36359;41.556;-8.418;2023-03-18T08:43:29;100275.91;;;13.36;100.00
50430;BME280;36359;41.556;-8.418;2023-03-18T08:45:55;100276.41;;;13.31;100.00
50430;BME280;36359;41.556;-8.418;2023-03-18T08:48:23;100284.41;;;13.41;100.00
50430;BME280;36359;41.556;-8.418;2023-03-18T08:50:49;100283.94;;;13.46;100.00
50430;BME280;36359;41.556;-8.418;2023-03-18T08:53:15;100288.34;;;13.55;100.00
50430;BME280;36359;41.556;-8.418;2023-03-18T08:55:41;100302.66;;;13.73;100.00
50430;BME280;36359;41.556;-8.418;2023-03-18T08:58:07;100291.25;;;13.70;100.00
50430;BME280;36359;41.556;-8.418;2023-03-18T09:00:34;100303.19;;;13.60;100.00
50430;BME280;36359;41.556;-8.418;2023-03-18T09:03:01;100304.38;;;13.58;100.00
50430;BME280;36359;41.556;-8.418;2023-03-18T09:05:28;100305.56;;;13.63;100.00
50430;BME280;36359;41.556;-8.418;2023-03-18T09:07:55;100305.91;;;13.60;100.00
50430;BME280;36359;41.556;-8.418;2023-03-18T09:10:21;100308.66;;;13.77;100.00
50430;BME280;36359;41.556;-8.418;2023-03-18T09:12:47;100320.41;;;13.85;100.00
50430;BME280;36359;41.556;-8.418;2023-03-18T09:15:15;100323.94;;;14.02;100.00
50430;BME280;36359;41.556;-8.418;2023-03-18T09:17:41;100335.19;;;14.16;100.00
50430;BME280;36359;41.556;-8.418;2023-03-18T09:20:12;100326.84;;;14.01;100.00
50430;BME280;36359;41.556;-8.418;2023-03-18T09:22:40;100336.44;;;13.89;100.00
50430;BME280;36359;41.556;-8.418;2023-03-18T09:25:06;100332.66;;;13.90;100.00
50430;BME280;36359;41.556;-8.418;2023-03-18T09:27:32;100335.53;;;13.96;100.00
50430;BME280;36359;41.556;-8.418;2023-03-18T09:29:58;100344.06;;;14.09;100.00
50430;BME280;36359;41.556;-8.418;2023-03-18T09:32:23;100348.84;;;14.16;100.00
50430;BME280;36359;41.556;-8.418;2023-03-18T09:34:50;100348.50;;;14.11;100.00
50430;BME280;36359;41.556;-8.418;2023-03-18T09:37:16;100354.44;;;14.22;100.00
50430;BME280;36359;41.556;-8.418;2023-03-18T09:39:43;100342.84;;;14.28;100.00
50430;BME280;36359;41.556;-8.418;2023-03-18T09:42:48;100350.66;;;14.40;100.00
50430;BME280;36359;41.556;-8.418;2023-03-18T09:45:30;100355.09;;;14.57;100.00
50430;BME280;36359;41.556;-8.418;2023-03-18T09:51:08;100347.38;;;14.69;100.00
50430;BME280;36359;41.556;-8.418;2023-03-18T09:53:49;100350.94;;;14.77;100.00
50430;BME280;36359;41.556;-8.418;2023-03-18T09:56:21;100347.88;;;14.64;100.00
50430;BME280;36359;41.556;-8.418;2023-03-18T09:58:56;100347.94;;;14.40;100.00
50430;BME280;36359;41.556;-8.418;2023-03-18T10:01:26;100353.75;;;14.20;100.00
50430;BME280;36359;41.556;-8.418;2023-03-18T10:04:02;100362.63;;;14.14;100.00
50430;BME280;36359;41.556;-8.418;2023-03-18T10:06:29;100358.22;;;14.13;100.00
50430;BME280;36359;41.556;-8.418;2023-03-18T10:11:50;100360.09;;;14.21;100.00
50430;BME280;36359;41.556;-8.418;2023-03-18T10:19:29;100363.81;;;14.36;100.00
50430;BME280;36359;41.556;-8.418;2023-03-18T10:22:16;100355.09;;;14.41;100.00
50430;BME280;36359;41.556;-8.418;2023-03-18T10:31:30;100369.13;;;14.21;100.00
50430;BME280;36359;41.556;-8.418;2023-03-18T10:33:46;100372.34;;;14.25;100.00
50430;BME280;36359;41.556;-8.418;2023-03-18T10:36:38;100372.84;;;14.20;100.00
50430;BME280;36359;41.556;-8.418;2023-03-18T10:39:16;100370.13;;;14.20;100.00
50430;BME280;36359;41.556;-8.418;2023-03-18T10:41:47;100382.59;;;14.31;100.00
50430;BME280;36359;41.556;-8.418;2023-03-18T10:44:17;100383.78;;;14.20;100.00
50430;BME280;36359;41.556;-8.418;2023-03-18T10:46:45;100372.53;;;13.99;100.00
50430;BME280;36359;41.556;-8.418;2023-03-18T10:49:18;100376.97;;;14.08;100.00
50430;BME280;36359;41.556;-8.418;2023-03-18T10:51:49;100377.47;;;14.12;100.00
50430;BME280;36359;41.556;-8.418;2023-03-18T10:56:58;100374.25;;;13.92;100.00
50430;BME280;36359;41.556;-8.418;2023-03-18T10:59:26;100380.38;;;13.77;100.00
50430;BME280;36359;41.556;-8.418;2023-03-18T11:04:47;100383.13;;;14.02;100.00
50430;BME280;36359;41.556;-8.418;2023-03-18T11:07:20;100386.19;;;14.15;100.00
50430;BME280;36359;41.556;-8.418;2023-03-18T11:09:48;100383.06;;;14.35;100.00
50430;BME280;36359;41.556;-8.418;2023-03-18T11:12:23;100392.59;;;14.47;100.00
50430;BME280;36359;41.556;-8.418;2023-03-18T11:14:50;100389.22;;;14.45;100.00
50430;BME280;36359;41.556;-8.418;2023-03-18T11:22:36;100388.72;;;14.97;100.00
50430;BME280;36359;41.556;-8.418;2023-03-18T11:27:44;100378.59;;;14.74;100.00
50430;BME280;36359;41.556;-8.418;2023-03-18T11:30:12;100385.22;;;14.80;100.00
50430;BME280;36359;41.556;-8.418;2023-03-18T11:33:02;100386.50;;;14.53;100.00
50430;BME280;36359;41.556;-8.418;2023-03-18T11:38:32;100394.03;;;13.94;100.00
50430;BME280;36359;41.556;-8.418;2023-03-18T11:41:08;100389.59;;;13.68;100.00
50430;BME280;36359;41.556;-8.418;2023-03-18T11:43:38;100396.03;;;13.67;100.00
50430;BME280;36359;41.556;-8.418;2023-03-18T11:46:07;100397.59;;;13.78;100.00
50430;BME280;36359;41.556;-8.418;2023-03-18T11:48:38;100398.78;;;14.08;100.00
50430;BME280;36359;41.556;-8.418;2023-03-18T11:57:06;100392.25;;;14.66;100.00
50430;BME280;36359;41.556;-8.418;2023-03-18T12:07:55;100410.72;;;14.48;100.00
50430;BME280;36359;41.556;-8.418;2023-03-18T12:10:30;100415.09;;;14.82;100.00
50430;BME280;36359;41.556;-8.418;2023-03-18T12:13:34;100416.06;;;14.97;100.00
50430;BME280;36359;41.556;-8.418;2023-03-18T12:16:50;100419.13;;;15.02;100.00
50430;BME280;36359;41.556;-8.418;2023-03-18T12:21:54;100428.75;;;14.82;100.00
50430;BME280;36359;41.556;-8.418;2023-03-18T12:24:49;100438.81;;;14.81;100.00
50430;BME280;36359;41.556;-8.418;2023-03-18T12:27:46;100430.75;;;14.96;100.00
50430;BME280;36359;41.556;-8.418;2023-03-18T12:30:49;100421.47;;;15.13;97.83
50430;BME280;36359;41.556;-8.418;2023-03-18T12:41:30;100432.19;;;14.67;100.00
50430;BME280;36359;41.556;-8.418;2023-03-18T12:46:48;100441.91;;;14.78;100.00
50430;BME280;36359;41.556;-8.418;2023-03-18T12:49:36;100439.38;;;14.76;100.00
50430;BME280;36359;41.556;-8.418;2023-03-18T12:52:23;100440.72;;;14.81;100.00
50430;BME280;36359;41.556;-8.418;2023-03-18T12:57:45;100425.50;;;15.26;99.14
50430;BME280;36359;41.556;-8.418;2023-03-18T13:00:36;100420.69;;;15.36;96.68
50430;BME280;36359;41.556;-8.418;2023-03-18T13:05:56;100425.16;;;15.68;94.69
50430;BME280;36359;41.556;-8.418;2023-03-18T13:11:20;100415.34;;;15.97;92.78
50430;BME280;36359;41.556;-8.418;2023-03-18T13:13:55;100402.97;;;15.55;93.50
50430;BME280;36359;41.556;-8.418;2023-03-18T13:16:25;100397.63;;;15.61;90.01
50430;BME280;36359;41.556;-8.418;2023-03-18T13:18:55;100405.25;;;15.43;89.26
50430;BME280;36359;41.556;-8.418;2023-03-18T13:21:25;100396.44;;;15.33;90.46
50430;BME280;36359;41.556;-8.418;2023-03-18T13:35:00;100397.31;;;16.25;94.10
50430;BME280;36359;41.556;-8.418;2023-03-18T13:43:19;100394.91;;;16.07;88.74
50430;BME280;36359;41.556;-8.418;2023-03-18T13:45:49;100388.72;;;16.13;88.49
50430;BME280;36359;41.556;-8.418;2023-03-18T13:50:47;100382.72;;;16.33;86.79
50430;BME280;36359;41.556;-8.418;2023-03-18T13:53:25;100383.16;;;16.22;84.56
50430;BME280;36359;41.556;-8.418;2023-03-18T13:58:26;100381.03;;;15.63;89.58
50430;BME280;36359;41.556;-8.418;2023-03-18T14:14:01;100384.81;;;16.61;83.51
50430;BME280;36359;41.556;-8.418;2023-03-18T14:21:51;100376.03;;;16.35;87.18
50430;BME280;36359;41.556;-8.418;2023-03-18T14:27:14;100383.06;;;16.68;84.24
50430;BME280;36359;41.556;-8.418;2023-03-18T14:29:43;100385.72;;;16.76;84.14
50430;BME280;36359;41.556;-8.418;2023-03-18T14:35:23;100386.03;;;16.43;81.30
50430;BME280;36359;41.556;-8.418;2023-03-18T14:38:11;100385.84;;;16.30;82.46
50430;BME280;36359;41.556;-8.418;2023-03-18T14:40:43;100379.47;;;16.82;84.42
50430;BME280;36359;41.556;-8.418;2023-03-18T14:43:38;100387.19;;;16.64;77.33
50430;BME280;36359;41.556;-8.418;2023-03-18T14:46:15;100387.66;;;16.67;77.04
50430;BME280;36359;41.556;-8.418;2023-03-18T14:51:19;100384.53;;;16.70;79.09